Time;durP1;ratioP1;P1;durP2;ratioP2;P2;SDS_P1;SDS_P2;PMS_P1;PMS_P2;Temp;Humidity;BMP_temperature;BMP_pressure;BME280_temperature;BME280_humidity;BME280_pressure;Samples;Min_cycle;Max_cycle;Signal;HPM_P1;HPM_P2
2021/12/25 00:00:08;;;;;;;12.17;9.80;;;;;;;6.38;100.00;94397.19;6069131;23;20180;-84
2021/12/25 00:02:34;;;;;;;10.93;8.73;;;;;;;6.37;100.00;94390.41;6068577;23;20174;-82
2021/12/25 00:05:00;;;;;;;9.97;7.87;;;;;;;6.42;100.00;94392.53;6093236;23;20268;-81
2021/12/25 00:07:25;;;;;;;9.40;6.80;;;;;;;6.38;100.00;94394.59;6068477;23;20607;-82
2021/12/25 00:09:50;;;;;;;8.67;6.87;;;;;;;6.41;100.00;94393.50;6093602;23;20220;-83
2021/12/25 00:12:16;;;;;;;6.40;5.70;;;;;;;6.41;100.00;94391.72;6068908;23;20225;-82
2021/12/25 00:14:41;;;;;;;6.50;5.43;;;;;;;6.40;100.00;94397.84;6093635;23;20160;-83
2021/12/25 00:17:06;;;;;;;6.57;5.53;;;;;;;6.42;100.00;94395.91;6070899;23;20180;-82
2021/12/25 00:19:32;;;;;;;6.47;5.17;;;;;;;6.40;100.00;94395.25;6071605;23;20193;-83
2021/12/25 00:21:57;;;;;;;10.23;5.10;;;;;;;6.44;100.00;94401.72;6071202;23;20168;-82
2021/12/25 00:24:23;;;;;;;5.83;5.03;;;;;;;6.39;100.00;94393.66;6071592;23;20160;-84
2021/12/25 00:27:02;;;;;;;5.43;4.30;;;;;;;6.49;100.00;94389.19;6071672;23;20223;-83
2021/12/25 00:32:28;;;;;;;6.17;5.17;;;;;;;6.39;100.00;94388.50;6095827;23;20149;-84
2021/12/25 00:34:54;;;;;;;6.30;4.80;;;;;;;6.35;100.00;94391.50;6071567;23;20475;-83
2021/12/25 00:37:19;;;;;;;7.97;5.90;;;;;;;6.34;100.00;94384.72;6071989;23;20195;-84
2021/12/25 00:39:44;;;;;;;6.53;5.23;;;;;;;6.31;100.00;94383.28;6072338;23;20169;-83
2021/12/25 00:42:11;;;;;;;6.57;5.33;;;;;;;6.30;100.00;94379.06;6096168;23;20248;-83
2021/12/25 00:44:36;;;;;;;6.63;5.47;;;;;;;6.29;100.00;94374.06;6071373;23;20494;-83
2021/12/25 00:47:03;;;;;;;9.20;5.90;;;;;;;6.26;100.00;94377.75;6095046;23;20172;-84
2021/12/25 00:49:28;;;;;;;6.90;5.63;;;;;;;6.25;100.00;94373.53;6094960;23;20164;-82
2021/12/25 00:51:53;;;;;;;8.13;5.83;;;;;;;6.24;100.00;94375.31;6070272;23;20165;-83
2021/12/25 00:54:19;;;;;;;8.27;5.90;;;;;;;6.24;100.00;94379.66;6095576;23;20681;-83
2021/12/25 00:56:44;;;;;;;8.40;6.37;;;;;;;6.24;100.00;94372.75;6095247;23;20494;-84
2021/12/25 00:59:10;;;;;;;6.80;6.10;;;;;;;6.24;100.00;94369.34;6096722;23;20177;-82
2021/12/25 01:01:39;;;;;;;8.23;5.93;;;;;;;6.22;100.00;94374.66;6094799;23;20156;-81
2021/12/25 01:04:05;;;;;;;7.10;5.77;;;;;;;6.19;100.00;94372.41;6095648;23;20657;-83
2021/12/25 01:06:30;;;;;;;9.33;5.93;;;;;;;6.28;100.00;94360.38;6094072;23;20173;-81
2021/12/25 01:08:56;;;;;;;7.93;5.97;;;;;;;6.26;100.00;94359.69;6095001;23;20172;-82
2021/12/25 01:11:24;;;;;;;7.93;6.20;;;;;;;6.21;100.00;94362.75;6094635;23;20180;-81
2021/12/25 01:13:56;;;;;;;6.67;5.33;;;;;;;6.22;100.00;94356.63;6071105;23;20161;-81
2021/12/25 01:19:36;;;;;;;9.80;6.20;;;;;;;6.28;100.00;94357.81;6095372;23;20204;-81
2021/12/25 01:22:09;;;;;;;7.93;5.90;;;;;;;6.22;100.00;94351.47;6074362;23;20198;-83
2021/12/25 01:24:59;;;;;;;8.20;6.33;;;;;;;6.21;100.00;94361.94;6094894;23;20137;-83
2021/12/25 01:27:50;;;;;;;7.97;6.47;;;;;;;6.23;100.00;94353.06;6094325;23;20156;-83
2021/12/25 01:30:21;;;;;;;7.80;5.37;;;;;;;6.19;100.00;94350.97;6095259;23;20141;-82
2021/12/25 01:33:21;;;;;;;8.73;5.50;;;;;;;6.17;100.00;94351.09;6093776;23;20148;-82
2021/12/25 01:38:56;;;;;;;7.37;5.93;;;;;;;6.17;100.00;94363.97;6095448;23;20156;-82
2021/12/25 01:49:06;;;;;;;10.17;6.63;;;;;;;6.17;100.00;94358.81;6074463;23;20188;-82
2021/12/25 01:51:31;;;;;;;8.00;6.50;;;;;;;6.17;100.00;94358.81;6093698;23;20161;-82
2021/12/25 01:53:57;;;;;;;9.87;7.13;;;;;;;6.18;100.00;94359.63;6094204;23;20157;-83
2021/12/25 01:56:22;;;;;;;9.40;6.43;;;;;;;6.15;100.00;94357.38;6094719;23;20176;-83
2021/12/25 01:58:48;;;;;;;8.50;6.70;;;;;;;6.13;100.00;94357.50;6094328;23;20513;-84
2021/12/25 02:01:13;;;;;;;8.80;6.90;;;;;;;6.09;100.00;94356.19;6094407;23;20279;-84
2021/12/25 02:03:39;;;;;;;9.37;6.40;;;;;;;6.14;100.00;94355.75;6046793;23;20224;-83
2021/12/25 02:06:08;;;;;;;6.83;5.90;;;;;;;6.11;100.00;94354.28;6093457;23;20184;-81
2021/12/25 02:08:33;;;;;;;7.00;5.90;;;;;;;6.10;100.00;94357.03;6093895;23;20227;-83
2021/12/25 02:10:59;;;;;;;8.63;6.53;;;;;;;6.11;100.00;94356.06;6094140;23;20184;-83
2021/12/25 02:13:25;;;;;;;8.67;5.83;;;;;;;6.11;100.00;94359.44;6093163;23;20157;-82
2021/12/25 02:15:53;;;;;;;7.90;6.30;;;;;;;6.10;100.00;94357.03;6069672;23;20627;-83
2021/12/25 02:18:26;;;;;;;7.47;6.50;;;;;;;6.12;100.00;94355.91;6094048;23;20188;-82
2021/12/25 02:21:06;;;;;;;9.23;6.70;;;;;;;6.12;100.00;94347.38;6094131;23;20181;-83
2021/12/25 02:23:32;;;;;;;6.47;5.77;;;;;;;6.13;100.00;94351.56;6094917;23;20534;-84
2021/12/25 02:25:58;;;;;;;8.17;6.03;;;;;;;6.11;100.00;94348.31;6094513;23;20179;-83
2021/12/25 02:28:25;;;;;;;6.93;4.90;;;;;;;6.13;100.00;94346.41;6070314;23;20165;-83
2021/12/25 02:30:52;;;;;;;3.40;2.60;;;;;;;6.17;100.00;94332.25;6094256;23;20161;-83
2021/12/25 02:33:18;;;;;;;4.60;3.37;;;;;;;6.23;100.00;94335.03;6093709;23;20164;-82
2021/12/25 02:35:44;;;;;;;2.67;2.10;;;;;;;6.27;100.00;94337.28;6093795;23;20193;-81
2021/12/25 02:38:10;;;;;;;3.17;2.30;;;;;;;6.24;100.00;94323.75;6094560;23;20226;-83
2021/12/25 02:40:35;;;;;;;3.50;2.60;;;;;;;6.25;100.00;94321.97;6093687;23;20164;-81
2021/12/25 02:43:01;;;;;;;3.53;2.33;;;;;;;6.28;100.00;94326.06;6093433;23;20658;-81
2021/12/25 02:45:26;;;;;;;3.57;2.70;;;;;;;6.23;100.00;94317.00;6093760;23;20181;-82
2021/12/25 02:47:54;;;;;;;2.30;1.97;;;;;;;6.17;100.00;94319.34;6094371;23;20612;-82
2021/12/25 02:50:30;;;;;;;2.47;1.70;;;;;;;6.18;100.00;94313.22;6070035;23;20215;-82
2021/12/25 02:52:57;;;;;;;2.07;1.70;;;;;;;6.15;100.00;94313.53;6093077;23;20160;-82
2021/12/25 02:55:23;;;;;;;2.57;2.20;;;;;;;6.17;100.00;94312.44;6069572;23;20564;-82
2021/12/25 02:57:52;;;;;;;3.43;2.13;;;;;;;6.19;100.00;94309.72;6093745;23;20203;-81
2021/12/25 03:00:23;;;;;;;2.37;1.90;;;;;;;6.17;100.00;94321.94;6093746;23;20176;-80
2021/12/25 03:02:49;;;;;;;2.10;1.80;;;;;;;6.20;100.00;94316.50;6093063;23;20163;-81
2021/12/25 03:05:15;;;;;;;3.37;1.67;;;;;;;6.18;100.00;94319.22;6093758;23;20184;-81
2021/12/25 03:07:40;;;;;;;2.57;1.70;;;;;;;6.17;100.00;94320.16;6092450;23;20165;-81
2021/12/25 03:10:06;;;;;;;2.00;1.80;;;;;;;6.17;100.00;94329.66;6093331;23;20163;-82
2021/12/25 03:12:38;;;;;;;2.00;1.77;;;;;;;6.13;100.00;94334.31;6069025;23;20164;-82
2021/12/25 03:15:14;;;;;;;2.00;1.80;;;;;;;6.10;100.00;94334.63;6069391;23;20503;-83
2021/12/25 03:17:40;;;;;;;1.60;1.50;;;;;;;6.13;100.00;94331.75;6094811;23;20175;-82
2021/12/25 03:20:07;;;;;;;1.60;1.50;;;;;;;6.13;100.00;94336.09;6093842;23;20255;-82
2021/12/25 03:22:32;;;;;;;3.10;1.40;;;;;;;6.12;100.00;94329.31;6094580;23;20621;-81
2021/12/25 03:24:58;;;;;;;1.20;1.10;;;;;;;6.15;100.00;94326.44;6096113;23;20184;-84
2021/12/25 03:27:23;;;;;;;1.37;1.10;;;;;;;6.14;100.00;94330.78;6094158;23;20269;-83
2021/12/25 03:29:49;;;;;;;1.20;1.10;;;;;;;6.14;100.00;94332.56;6094435;23;20163;-83
2021/12/25 03:32:14;;;;;;;0.90;0.80;;;;;;;6.15;100.00;94321.28;6093281;23;20175;-83
2021/12/25 03:34:39;;;;;;;1.00;0.83;;;;;;;6.15;100.00;94319.50;6069517;23;20164;-83
2021/12/25 03:37:05;;;;;;;0.93;0.87;;;;;;;6.17;100.00;94317.56;6069477;23;20176;-82
2021/12/25 03:39:30;;;;;;;1.90;1.47;;;;;;;6.17;100.00;94322.72;6093810;23;20192;-82
2021/12/25 03:41:58;;;;;;;1.17;0.80;;;;;;;6.18;100.00;94328.69;6093204;23;20156;-83
2021/12/25 03:44:24;;;;;;;0.97;0.83;;;;;;;6.16;100.00;94320.31;6069745;23;20184;-82
2021/12/25 03:46:50;;;;;;;1.00;0.90;;;;;;;6.14;100.00;94322.25;6093849;23;20570;-83
2021/12/25 03:57:50;;;;;;;0.90;0.80;;;;;;;6.10;100.00;94297.75;6093955;23;20263;-83
2021/12/25 04:00:16;;;;;;;0.80;0.80;;;;;;;6.11;100.00;94287.28;6069366;23;20207;-82
2021/12/25 04:02:56;;;;;;;0.67;0.67;;;;;;;6.07;100.00;94290.28;6093674;23;20187;-83
2021/12/25 04:05:27;;;;;;;0.83;0.80;;;;;;;6.11;100.00;94297.59;6093166;23;20172;-82
2021/12/25 04:10:34;;;;;;;0.67;0.67;;;;;;;6.10;100.00;94284.84;6094047;23;20152;-81
2021/12/25 04:13:00;;;;;;;1.10;0.90;;;;;;;6.13;100.00;94284.53;6093375;23;20195;-82
2021/12/25 04:15:25;;;;;;;0.80;0.80;;;;;;;6.16;100.00;94290.19;6093491;23;20599;-83
2021/12/25 04:17:50;;;;;;;1.07;0.93;;;;;;;6.11;100.00;94284.69;6094019;23;20468;-81
2021/12/25 04:20:17;;;;;;;0.83;0.80;;;;;;;6.09;100.00;94289.16;6069485;23;20494;-82
2021/12/25 04:22:48;;;;;;;1.53;0.90;;;;;;;6.09;100.00;94284.00;6093288;23;20167;-83
2021/12/25 04:25:19;;;;;;;0.70;0.70;;;;;;;6.08;100.00;94276.44;6070561;23;20204;-82
2021/12/25 04:27:44;;;;;;;1.10;0.90;;;;;;;6.05;100.00;94281.91;6094057;23;20148;-82
2021/12/25 04:30:30;;;;;;;0.80;0.80;;;;;;;6.05;100.00;94281.91;6069941;23;20180;-83
2021/12/25 05:05:22;;;;;;;2.77;1.50;;;;;;;5.92;100.00;94265.09;6095729;23;20184;-82
2021/12/25 05:07:48;;;;;;;1.53;1.40;;;;;;;5.88;100.00;94250.84;6070059;23;20157;-81
2021/12/25 05:10:13;;;;;;;2.63;1.50;;;;;;;5.89;100.00;94247.28;6071150;23;20168;-80
2021/12/25 05:12:38;;;;;;;3.67;1.50;;;;;;;5.88;100.00;94248.25;6096306;23;20164;-82
2021/12/25 05:15:04;;;;;;;2.30;1.67;;;;;;;5.93;100.00;94251.25;6071439;23;20176;-84
2021/12/25 05:17:30;;;;;;;1.90;1.27;;;;;;;5.96;100.00;94250.13;6094904;23;20639;-81
2021/12/25 05:19:56;;;;;;;1.50;1.40;;;;;;;5.96;100.00;94253.50;6095528;23;20203;-81
2021/12/25 05:22:21;;;;;;;1.37;1.13;;;;;;;5.98;100.00;94245.63;6070046;23;20168;-81
2021/12/25 05:24:46;;;;;;;1.83;1.73;;;;;;;5.94;100.00;94250.28;6046909;23;20188;-84
2021/12/25 05:27:14;;;;;;;1.87;1.60;;;;;;;6.00;100.00;94242.88;6095583;23;20156;-82
2021/12/25 05:29:41;;;;;;;2.07;1.87;;;;;;;5.95;100.00;94251.88;6047702;23;20288;-83
2021/12/25 05:32:06;;;;;;;2.07;1.73;;;;;;;5.99;100.00;94251.56;6069849;23;20164;-82
2021/12/25 05:34:32;;;;;;;2.67;1.90;;;;;;;5.99;100.00;94244.66;6070347;23;20167;-82
2021/12/25 05:36:57;;;;;;;2.57;1.50;;;;;;;5.99;100.00;94251.56;6094387;23;20215;-83
2021/12/25 05:39:22;;;;;;;1.70;1.30;;;;;;;6.00;100.00;94255.75;6094725;23;20160;-83
2021/12/25 05:41:48;;;;;;;2.50;1.67;;;;;;;5.97;100.00;94249.97;6069856;23;20157;-83
2021/12/25 05:44:13;;;;;;;1.80;1.20;;;;;;;6.01;100.00;94253.06;6047062;23;20161;-82
2021/12/25 05:46:38;;;;;;;1.30;1.20;;;;;;;6.06;100.00;94250.00;6070545;23;20187;-83
2021/12/25 05:49:03;;;;;;;1.13;1.03;;;;;;;6.04;100.00;94255.31;6070277;23;20203;-81
2021/12/25 05:51:29;;;;;;;1.80;1.50;;;;;;;5.97;100.00;94251.72;6069484;23;20162;-83
2021/12/25 05:53:54;;;;;;;1.43;1.30;;;;;;;5.96;100.00;94243.19;6094384;23;20152;-83
2021/12/25 05:56:19;;;;;;;4.30;1.47;;;;;;;6.00;100.00;94248.84;6070094;23;20189;-83
2021/12/25 05:58:45;;;;;;;10.63;5.57;;;;;;;5.88;100.00;94256.00;6070470;23;20156;-81
2021/12/25 06:01:11;;;;;;;7.23;4.80;;;;;;;5.89;100.00;94252.44;6069860;23;20243;-81
2021/12/25 06:03:37;;;;;;;7.50;4.27;;;;;;;5.89;100.00;94259.38;6070686;23;20202;-84
2021/12/25 06:06:02;;;;;;;4.30;3.00;;;;;;;5.90;100.00;94259.25;6092386;23;20229;-82
2021/12/25 06:08:28;;;;;;;3.63;2.93;;;;;;;5.90;100.00;94264.41;6094600;23;20168;-82
2021/12/25 06:10:54;;;;;;;5.47;2.03;;;;;;;5.92;100.00;94265.09;6094090;23;20192;-82
2021/12/25 06:13:21;;;;;;;3.20;2.60;;;;;;;5.95;100.00;94262.19;6094066;23;20160;-82
2021/12/25 06:15:48;;;;;;;3.10;2.20;;;;;;;6.01;100.00;94267.69;6093980;23;20176;-82
2021/12/25 06:18:13;;;;;;;1.93;1.50;;;;;;;6.02;100.00;94267.56;6094448;23;20557;-82
2021/12/25 06:20:39;;;;;;;5.07;3.80;;;;;;;6.05;100.00;94262.09;6070124;23;20231;-81
2021/12/25 06:23:05;;;;;;;3.37;3.03;;;;;;;6.13;100.00;94259.56;6093589;23;20156;-81
2021/12/25 06:25:30;;;;;;;3.60;3.30;;;;;;;6.14;100.00;94268.13;6069825;23;20185;-82
2021/12/25 06:27:56;;;;;;;4.30;2.40;;;;;;;6.17;100.00;94257.47;6093987;23;20207;-83
2021/12/25 06:30:21;;;;;;;3.43;2.90;;;;;;;6.20;100.00;94262.34;6094360;23;20536;-81
2021/12/25 06:32:46;;;;;;;2.17;1.93;;;;;;;6.20;100.00;94263.16;6094022;23;20199;-82
2021/12/25 06:35:12;;;;;;;3.97;2.33;;;;;;;6.23;100.00;94275.75;6071155;23;20275;-82
2021/12/25 06:37:40;;;;;;;2.20;2.00;;;;;;;6.24;100.00;94259.31;6095584;23;20180;-81
2021/12/25 06:40:06;;;;;;;3.03;2.00;;;;;;;6.24;100.00;94266.22;6094918;23;20539;-82
2021/12/25 06:42:31;;;;;;;2.77;2.27;;;;;;;6.23;100.00;94267.19;6093747;23;20284;-83
2021/12/25 06:44:56;;;;;;;4.30;3.20;;;;;;;6.22;100.00;94278.47;6069833;23;20165;-84
2021/12/25 06:47:21;;;;;;;7.77;4.30;;;;;;;6.23;100.00;94278.31;6094335;23;20157;-82
2021/12/25 06:49:47;;;;;;;40.87;26.23;;;;;;;6.29;100.00;94282.06;6093978;23;20167;-81
2021/12/25 06:52:12;;;;;;;10.10;7.40;;;;;;;6.29;100.00;94282.06;6093596;23;20160;-82
2021/12/25 06:54:37;;;;;;;9.60;7.77;;;;;;;6.37;100.00;94282.13;6094061;23;20156;-84
2021/12/25 06:57:03;;;;;;;4.87;3.83;;;;;;;6.42;100.00;94284.22;6069768;23;20649;-82
2021/12/25 06:59:30;;;;;;;6.93;6.23;;;;;;;6.42;100.00;94279.88;6094400;23;20180;-82
2021/12/25 07:01:55;;;;;;;6.83;4.60;;;;;;;6.50;100.00;94287.66;6069436;23;20160;-78
2021/12/25 07:04:21;;;;;;;6.87;5.73;;;;;;;6.44;100.00;94280.53;6095442;23;20172;-79
2021/12/25 07:06:48;;;;;;;6.30;5.47;;;;;;;6.43;100.00;94280.69;6095627;23;20168;-84
2021/12/25 07:09:14;;;;;;;6.87;5.60;;;;;;;6.49;100.00;94280.88;6096096;23;20184;-83
2021/12/25 07:11:39;;;;;;;18.73;11.90;;;;;;;6.46;100.00;94288.13;6071672;23;20188;-84
2021/12/25 07:14:05;;;;;;;37.87;21.13;;;;;;;6.47;100.00;94282.81;6070886;23;20164;-83
2021/12/25 07:16:32;;;;;;;13.07;7.90;;;;;;;6.49;100.00;94282.66;6095171;23;20196;-83
2021/12/25 07:18:57;;;;;;;13.87;10.53;;;;;;;6.53;100.00;94289.09;6071097;23;20249;-83
2021/12/25 07:21:22;;;;;;;8.17;7.30;;;;;;;6.61;100.00;94301.25;6094441;23;20161;-84
2021/12/25 07:23:48;;;;;;;7.57;5.20;;;;;;;6.53;100.00;94302.00;6098114;23;20221;-83
2021/12/25 07:26:16;;;;;;;8.33;6.27;;;;;;;6.53;100.00;94302.81;6072065;23;20721;-84
2021/12/25 07:28:42;;;;;;;6.13;5.27;;;;;;;6.53;100.00;94315.72;6095841;23;20166;-84
2021/12/25 07:31:08;;;;;;;6.93;5.73;;;;;;;6.59;100.00;94306.56;6095687;23;20704;-82
2021/12/25 07:33:35;;;;;;;7.77;5.83;;;;;;;6.56;100.00;94311.22;6071092;23;20536;-83
2021/12/25 07:36:00;;;;;;;6.87;4.80;;;;;;;6.55;100.00;94302.69;6094730;23;20193;-84
2021/12/25 07:38:26;;;;;;;7.03;4.57;;;;;;;6.51;100.00;94314.25;6071794;23;20588;-83
2021/12/25 07:40:51;;;;;;;6.33;4.33;;;;;;;6.61;100.00;94317.53;6070914;23;20227;-82
2021/12/25 07:43:17;;;;;;;6.50;4.67;;;;;;;6.53;100.00;94318.28;6070450;23;20505;-82
2021/12/25 07:45:46;;;;;;;6.07;4.30;;;;;;;6.49;100.00;94317.00;6094932;23;20214;-81
2021/12/25 07:48:11;;;;;;;5.57;4.40;;;;;;;6.55;100.00;94325.91;6095865;23;20493;-83
2021/12/25 07:50:36;;;;;;;5.47;4.20;;;;;;;6.47;100.00;94320.69;6094294;23;20153;-83
2021/12/25 07:53:02;;;;;;;5.23;4.40;;;;;;;6.49;100.00;94322.16;6070491;23;20782;-84
2021/12/25 07:55:30;;;;;;;6.20;4.77;;;;;;;6.46;100.00;94322.47;6095665;23;20507;-84
2021/12/25 07:57:56;;;;;;;6.27;4.60;;;;;;;6.47;100.00;94329.22;6094958;23;20235;-84
2021/12/25 08:00:21;;;;;;;6.20;4.07;;;;;;;6.52;100.00;94336.50;6094947;23;20204;-84
2021/12/25 08:02:47;;;;;;;5.87;4.57;;;;;;;6.55;100.00;94325.09;6094865;23;20161;-81
2021/12/25 08:05:12;;;;;;;7.20;4.37;;;;;;;6.58;100.00;94330.75;6072512;23;20185;-83
2021/12/25 08:07:38;;;;;;;5.10;3.97;;;;;;;6.60;100.00;94333.16;6097859;23;20153;-83
2021/12/25 08:10:14;;;;;;;5.30;3.77;;;;;;;6.59;100.00;94347.03;6094709;23;20602;-80
2021/12/25 08:12:51;;;;;;;4.03;3.40;;;;;;;6.55;100.00;94341.38;6122403;23;20198;-81
2021/12/25 08:15:22;;;;;;;6.47;3.33;;;;;;;6.55;100.00;94343.16;6122874;23;20176;-80
2021/12/25 08:17:48;;;;;;;4.17;3.77;;;;;;;6.55;100.00;94345.72;6122157;23;20164;-79
2021/12/25 08:20:14;;;;;;;3.80;2.90;;;;;;;6.63;100.00;94348.34;6123165;23;20219;-83
2021/12/25 08:22:40;;;;;;;4.53;3.57;;;;;;;6.68;100.00;94348.69;6098202;23;20172;-83
2021/12/25 08:25:07;;;;;;;5.23;4.30;;;;;;;6.63;100.00;94338.03;6098426;23;20214;-81
2021/12/25 08:27:33;;;;;;;3.03;2.70;;;;;;;6.63;100.00;94348.34;6098054;23;20633;-79
2021/12/25 08:29:59;;;;;;;4.37;2.93;;;;;;;6.65;100.00;94346.41;6123082;23;20152;-80
2021/12/25 08:32:24;;;;;;;4.37;3.03;;;;;;;6.60;100.00;94354.59;6122525;23;20228;-82
2021/12/25 08:34:49;;;;;;;4.00;3.00;;;;;;;6.62;100.00;94355.25;6123231;23;20168;-87
2021/12/25 08:37:15;;;;;;;2.70;2.30;;;;;;;6.57;100.00;94359.28;6100955;23;20242;-86
2021/12/25 08:39:41;;;;;;;3.57;2.60;;;;;;;6.52;100.00;94342.47;6127211;23;20167;-85
2021/12/25 08:42:09;;;;;;;2.73;2.53;;;;;;;6.51;100.00;94348.59;6124930;23;20152;-87
2021/12/25 08:44:42;;;;;;;2.50;2.30;;;;;;;6.60;100.00;94358.97;6102263;23;20186;-87
2021/12/25 08:47:10;;;;;;;2.30;2.07;;;;;;;6.60;100.00;94358.97;6101016;23;20156;-82
2021/12/25 08:49:37;;;;;;;3.50;3.00;;;;;;;6.64;100.00;94362.88;6100406;23;20187;-83
2021/12/25 08:52:08;;;;;;;3.60;2.23;;;;;;;6.59;100.00;94372.81;6125150;23;20187;-82
2021/12/25 08:54:34;;;;;;;4.50;4.10;;;;;;;6.55;100.00;94366.34;6127189;23;20156;-81
2021/12/25 08:57:01;;;;;;;4.43;3.60;;;;;;;6.56;100.00;94366.19;6125903;23;20241;-81
2021/12/25 08:59:26;;;;;;;5.20;4.20;;;;;;;6.58;100.00;94373.78;6124992;23;20167;-81
2021/12/25 09:01:52;;;;;;;3.93;2.53;;;;;;;6.54;100.00;94370.72;6123899;23;20617;-81
2021/12/25 09:04:17;;;;;;;3.47;1.90;;;;;;;6.53;100.00;94369.88;6125055;23;20211;-82
2021/12/25 09:06:42;;;;;;;2.33;1.70;;;;;;;6.64;100.00;94365.44;6124582;23;20182;-82
2021/12/25 09:09:09;;;;;;;2.33;1.80;;;;;;;6.69;100.00;94369.16;6124690;23;20183;-81
2021/12/25 09:11:36;;;;;;;3.13;2.00;;;;;;;6.72;100.00;94374.03;6123867;23;20152;-80
2021/12/25 09:14:03;;;;;;;2.30;2.00;;;;;;;6.72;100.00;94373.25;6123929;23;20240;-79
2021/12/25 09:16:28;;;;;;;2.37;1.47;;;;;;;6.68;100.00;94379.66;6124272;23;20211;-82
2021/12/25 09:18:54;;;;;;;1.93;1.50;;;;;;;6.79;100.00;94379.38;6125752;23;20191;-81
2021/12/25 09:21:19;;;;;;;1.60;1.30;;;;;;;6.82;100.00;94379.91;6098946;23;20156;-80
2021/12/25 09:23:45;;;;;;;2.40;2.20;;;;;;;6.78;100.00;94380.34;6124514;23;20163;-81
2021/12/25 09:26:10;;;;;;;2.60;2.40;;;;;;;6.77;100.00;94381.31;6126082;23;20230;-82
2021/12/25 09:28:36;;;;;;;2.27;2.07;;;;;;;6.81;100.00;94386.03;6124130;23;20164;-81
2021/12/25 09:31:01;;;;;;;2.90;2.60;;;;;;;6.88;100.00;94390.56;6124000;23;20174;-80
2021/12/25 09:33:27;;;;;;;3.63;1.80;;;;;;;6.77;100.00;94395.00;6123119;23;20200;-82
2021/12/25 09:35:52;;;;;;;2.63;1.57;;;;;;;6.76;100.00;94395.97;6123694;23;20180;-81
2021/12/25 09:38:18;;;;;;;1.63;1.53;;;;;;;6.72;100.00;94409.34;6125121;23;20160;-82
2021/12/25 09:40:43;;;;;;;3.07;2.00;;;;;;;6.70;100.00;94406.09;6124166;23;20160;-81
2021/12/25 09:43:08;;;;;;;3.50;3.20;;;;;;;6.79;100.00;94405.19;6124063;23;20606;-79
2021/12/25 09:45:34;;;;;;;5.87;4.60;;;;;;;6.76;100.00;94402.91;6123638;23;20182;-80
2021/12/25 09:47:59;;;;;;;5.30;4.90;;;;;;;6.70;100.00;94406.91;6124252;23;20474;-80
2021/12/25 09:50:25;;;;;;;4.63;3.93;;;;;;;6.78;100.00;94411.31;6123927;23;20141;-80
2021/12/25 09:52:50;;;;;;;5.23;3.23;;;;;;;6.80;100.00;94412.78;6124138;23;20264;-82
2021/12/25 09:55:16;;;;;;;3.20;3.00;;;;;;;6.81;100.00;94405.88;6124804;23;20634;-81
2021/12/25 09:57:41;;;;;;;3.17;2.87;;;;;;;6.93;100.00;94402.03;6101122;23;20481;-80
2021/12/25 10:00:12;;;;;;;4.67;3.10;;;;;;;6.95;100.00;94410.44;6124562;23;20168;-80
2021/12/25 10:02:46;;;;;;;2.53;2.33;;;;;;;6.95;100.00;94407.84;6123322;23;20152;-80
2021/12/25 10:05:12;;;;;;;2.20;2.00;;;;;;;7.01;100.00;94403.88;6120786;23;20183;-80
2021/12/25 10:07:37;;;;;;;3.90;2.10;;;;;;;7.00;100.00;94402.25;6121225;23;20246;-80
2021/12/25 10:10:10;;;;;;;2.60;2.40;;;;;;;7.01;100.00;94404.69;6097289;23;20164;-82
2021/12/25 10:12:43;;;;;;;3.13;2.70;;;;;;;7.07;100.00;94404.06;6095993;23;20480;-81
2021/12/25 10:15:12;;;;;;;3.47;2.60;;;;;;;7.03;100.00;94400.16;6121195;23;20184;-81
2021/12/25 10:17:58;;;;;;;3.37;2.97;;;;;;;7.06;100.00;94397.25;6121208;23;20208;-81
2021/12/25 10:20:26;;;;;;;3.33;3.00;;;;;;;7.14;100.00;94400.84;6121549;23;20202;-81
2021/12/25 10:23:02;;;;;;;3.33;2.90;;;;;;;7.21;100.00;94394.09;6121141;23;20238;-80
2021/12/25 10:25:32;;;;;;;3.10;2.90;;;;;;;7.29;100.00;94394.97;6096535;23;20187;-80
2021/12/25 10:28:06;;;;;;;3.80;3.00;;;;;;;7.33;100.00;94398.03;6096969;23;20140;-81
2021/12/25 10:30:44;;;;;;;2.90;2.70;;;;;;;7.43;100.00;94388.41;6098460;23;20673;-79
2021/12/25 10:33:22;;;;;;;2.23;1.80;;;;;;;7.45;100.00;94396.78;6121339;23;20497;-80
2021/12/25 10:35:48;;;;;;;6.93;6.23;;;;;;;7.38;100.00;94396.59;6122566;23;20529;-78
2021/12/25 10:38:13;;;;;;;4.07;3.37;;;;;;;7.43;100.00;94390.19;6098995;23;20163;-80
2021/12/25 10:40:38;;;;;;;2.73;1.70;;;;;;;7.46;100.00;94384.69;6123541;23;20159;-81
2021/12/25 10:43:04;;;;;;;1.60;1.50;;;;;;;7.45;100.00;94389.03;6122908;23;20716;-83
2021/12/25 10:45:31;;;;;;;3.10;1.30;;;;;;;7.49;100.00;94387.75;6125252;23;20561;-80
2021/12/25 10:48:06;;;;;;;2.80;1.43;;;;;;;7.55;100.00;94389.72;6122884;23;20228;-80
2021/12/25 10:50:41;;;;;;;2.03;1.80;;;;;;;7.54;100.00;94387.28;6122915;23;20913;-81
2021/12/25 10:53:26;;;;;;;1.90;1.73;;;;;;;7.45;100.00;94381.28;6123504;23;20180;-80
2021/12/25 10:55:53;;;;;;;2.17;1.53;;;;;;;7.46;100.00;94387.25;6122478;23;20179;-80
2021/12/25 10:58:24;;;;;;;2.60;1.90;;;;;;;7.45;100.00;94381.28;6098153;23;20156;-81
2021/12/25 11:00:58;;;;;;;2.33;1.50;;;;;;;7.37;100.00;94379.50;6122437;23;20218;-81
2021/12/25 11:03:30;;;;;;;2.00;1.60;;;;;;;7.53;100.00;94376.16;6122055;23;20151;-81
2021/12/25 11:06:02;;;;;;;1.57;1.47;;;;;;;7.54;100.00;94380.34;6121470;23;20254;-80
2021/12/25 11:08:29;;;;;;;2.27;1.70;;;;;;;7.56;100.00;94375.03;6123047;23;20227;-81
2021/12/25 11:11:06;;;;;;;2.70;1.87;;;;;;;7.58;100.00;94371.31;6123302;23;20156;-81
2021/12/25 11:13:37;;;;;;;2.13;1.93;;;;;;;7.69;100.00;94367.63;6120852;23;20168;-82
2021/12/25 11:16:12;;;;;;;1.73;1.60;;;;;;;7.74;100.00;94364.56;6123636;23;20184;-83
2021/12/25 11:19:15;;;;;;;2.20;1.50;;;;;;;7.69;100.00;94364.25;6125276;23;20193;-83
2021/12/25 11:21:43;;;;;;;2.33;2.07;;;;;;;7.67;100.00;94369.56;6123894;23;20530;-83
2021/12/25 11:24:16;;;;;;;2.57;1.80;;;;;;;7.69;100.00;94364.25;6119356;23;20156;-83
2021/12/25 11:26:47;;;;;;;2.23;1.43;;;;;;;7.74;100.00;94365.38;6095483;23;20175;-82
2021/12/25 11:29:14;;;;;;;1.57;1.20;;;;;;;7.66;100.00;94368.75;6121054;23;20583;-82
2021/12/25 11:31:40;;;;;;;2.30;1.50;;;;;;;7.65;100.00;94364.53;6122068;23;20562;-81
2021/12/25 11:34:06;;;;;;;1.63;1.53;;;;;;;7.70;100.00;94358.91;6098139;23;20192;-80
2021/12/25 11:36:32;;;;;;;2.27;1.70;;;;;;;7.69;100.00;94365.06;6121688;23;20188;-81
2021/12/25 11:38:57;;;;;;;2.50;1.47;;;;;;;7.69;100.00;94367.63;6122870;23;20192;-82
2021/12/25 11:41:28;;;;;;;2.60;1.60;;;;;;;7.73;100.00;94362.94;6122598;23;20805;-81
2021/12/25 11:43:54;;;;;;;2.70;1.30;;;;;;;7.69;100.00;94366.84;6123413;23;20159;-81
2021/12/25 11:46:20;;;;;;;2.37;1.53;;;;;;;7.85;100.00;94362.47;6122541;23;20176;-80
2021/12/25 11:49:07;;;;;;;3.17;1.50;;;;;;;7.81;100.00;94366.34;6122450;23;20243;-81
2021/12/25 11:51:32;;;;;;;2.13;1.90;;;;;;;7.73;100.00;94362.94;6122072;23;20186;-83
2021/12/25 11:56:42;;;;;;;2.67;2.33;;;;;;;7.72;100.00;94358.75;6124382;23;20184;-82
2021/12/25 11:59:13;;;;;;;3.33;2.70;;;;;;;7.70;100.00;94360.69;6126514;23;20203;-83
2021/12/25 12:01:49;;;;;;;3.17;2.80;;;;;;;7.74;100.00;94364.56;6123812;23;20439;-83
2021/12/25 12:04:17;;;;;;;3.80;2.57;;;;;;;7.81;100.00;94362.97;6123810;23;20223;-76
2021/12/25 12:06:51;;;;;;;2.50;2.30;;;;;;;7.74;100.00;94355.03;6123497;23;20179;-83
2021/12/25 12:09:37;;;;;;;2.43;2.20;;;;;;;7.82;100.00;94357.63;6123210;23;20152;-83
2021/12/25 12:12:02;;;;;;;2.40;2.20;;;;;;;7.63;100.00;94350.97;6125267;23;20143;-83
2021/12/25 12:14:28;;;;;;;3.87;2.47;;;;;;;7.70;100.00;94358.13;6126066;23;20214;-83
2021/12/25 12:17:01;;;;;;;2.50;2.30;;;;;;;7.72;100.00;94356.97;6126315;23;20184;-82
2021/12/25 12:19:30;;;;;;;4.10;2.53;;;;;;;7.70;100.00;94364.09;6127067;23;20148;-84
2021/12/25 12:21:55;;;;;;;2.40;2.20;;;;;;;7.56;100.00;94356.94;6128022;23;20155;-83
2021/12/25 12:27:00;;;;;;;3.17;2.30;;;;;;;7.57;100.00;94353.38;6127146;23;20195;-83
2021/12/25 12:29:37;;;;;;;4.33;2.63;;;;;;;7.47;100.00;94350.94;6126780;23;20196;-82
2021/12/25 12:32:04;;;;;;;3.83;3.27;;;;;;;7.45;100.00;94349.50;6127762;23;20152;-83
2021/12/25 12:34:29;;;;;;;3.80;3.47;;;;;;;7.40;100.00;94349.94;6126691;23;20170;-82
2021/12/25 12:37:13;;;;;;;2.63;2.37;;;;;;;7.33;100.00;94359.28;6125126;23;20191;-81
2021/12/25 12:40:03;;;;;;;5.90;2.50;;;;;;;7.40;100.00;94362.88;6127212;23;20206;-83
2021/12/25 12:42:41;;;;;;;4.10;2.43;;;;;;;7.39;100.00;94362.06;6117709;23;20167;-83